Liguria — IRKJ — position and weather

sailwx.info

Track history (hours):
 
Tides and Currents Weather Stations Pressure Air Temp Water Temp Dewpoint Dewpoint Depression Visibility Wind Speed Wind Dir Waves Ship Positions

Liguria

Last reported at 2014-Oct-24 04:04 UTC. Time now 2014-Oct-24 13:32 UTC.
Position N 44°18' E 008°29'.

Length 30 m.

Type: Tug. MMSI: 247228500.

Date/timePositionNaut miles runAvg speedWind from/ knotsBaromVisibWave heightAir tempDewpointWater temp
2014-Oct-24 04:04N 44°18' E 008°29'0 0.0
2014-Oct-24 02:25N 44°18' E 008°29'0 0.0
2014-Oct-24 01:28N 44°18' E 008°29'0 0.0
2014-Oct-24 00:28N 44°18' E 008°29'0 0.0
2014-Oct-23 16:07N 44°18' E 008°29'0 0.0
2014-Oct-23 06:28N 44°18' E 008°29'0 0.0
2014-Oct-22 16:05N 44°18' E 008°29'0 0.0
2014-Oct-22 15:32N 44°18' E 008°29'0 0.0
2014-Oct-22 11:32N 44°18' E 008°29'0 0.0
2014-Oct-22 07:32N 44°18' E 008°29'1 0.4
2014-Oct-22 05:26N 44°19' E 008°30'1 0.1
2014-Oct-21 19:23N 44°18' E 008°29'0 0.0
2014-Oct-21 07:29N 44°18' E 008°29'0 0.0
2014-Oct-21 03:11N 44°18' E 008°29'1 0.1
2014-Oct-20 15:30N 44°19' E 008°30'1 0.7
2014-Oct-20 14:33N 44°18' E 008°29'0 0.0
2014-Oct-20 11:30N 44°18' E 008°29'0 0.0
2014-Oct-20 10:27N 44°18' E 008°29'0 0.2
2014-Oct-20 08:33N 44°18' E 008°30'2 1.8
2014-Oct-20 07:33N 44°17' E 008°28'2 1.6
2014-Oct-20 06:18N 44°18' E 008°29'0 0.0
2014-Oct-20 03:30N 44°18' E 008°29'0 0.0
2014-Oct-19 16:04N 44°18' E 008°29'0 0.0
2014-Oct-19 15:13N 44°18' E 008°29'0 0.0
2014-Oct-19 14:28N 44°18' E 008°29'0 0.0
2014-Oct-19 11:22N 44°18' E 008°29'0 0.0
2014-Oct-18 11:13N 44°18' E 008°29'0 0.0
2014-Oct-18 08:16N 44°18' E 008°29'0 0.0
2014-Oct-18 07:31N 44°18' E 008°29'1 0.3
2014-Oct-18 05:15N 44°19' E 008°30'0 0.4
2014-Oct-18 04:32N 44°19' E 008°30'1 0.8
2014-Oct-18 03:32N 44°18' E 008°29'0 0.0
2014-Oct-17 03:31N 44°18' E 008°29'0 0.0
2014-Oct-17 02:31N 44°18' E 008°29'0 0.0
2014-Oct-17 01:31N 44°18' E 008°29'0 0.0
2014-Oct-17 00:25N 44°18' E 008°29'0 0.0
2014-Oct-15 18:23N 44°19' E 008°29'0 0.1
2014-Oct-15 16:04N 44°18' E 008°29'0 0.0
2014-Oct-15 15:22N 44°18' E 008°29'0 0.0
2014-Oct-15 07:28N 44°18' E 008°29'3 1.0
2014-Oct-15 04:23N 44°16' E 008°27'0 0.4
2014-Oct-15 03:31N 44°16' E 008°27'3 3.1
2014-Oct-15 02:31N 44°19' E 008°29'0 0.3
2014-Oct-15 01:29N 44°18' E 008°29'0 0.0
2014-Oct-15 00:32N 44°18' E 008°29'0 0.0
2014-Oct-14 23:32N 44°18' E 008°29'0 0.0
2014-Oct-14 13:29N 44°18' E 008°29'0 0.0
2014-Oct-14 08:20N 44°18' E 008°29'0 0.0
2014-Oct-14 07:30N 44°18' E 008°29'3 2.9
2014-Oct-14 06:33N 44°16' E 008°27'  
Track history (hours):
 
Tides and Currents Weather Stations Pressure Air Temp Water Temp Dewpoint Dewpoint Depression Visibility Wind Speed Wind Dir Waves Ship Positions

Liguria

Last reported at 2014-Oct-24 04:04 UTC. Time now 2014-Oct-24 13:32 UTC.
Position N 44°18' E 008°29'.

Length 30 m.

Type: Tug. MMSI: 247228500.

Date/timePositionNaut miles runAvg speedWind from/ knotsBaromVisibWave heightAir tempDewpointWater temp
2014-Oct-24 04:04N 44°18' E 008°29'0 0.0
2014-Oct-24 02:25N 44°18' E 008°29'0 0.0
2014-Oct-24 01:28N 44°18' E 008°29'0 0.0
2014-Oct-24 00:28N 44°18' E 008°29'0 0.0
2014-Oct-23 16:07N 44°18' E 008°29'0 0.0
2014-Oct-23 06:28N 44°18' E 008°29'0 0.0
2014-Oct-22 16:05N 44°18' E 008°29'0 0.0
2014-Oct-22 15:32N 44°18' E 008°29'0 0.0
2014-Oct-22 11:32N 44°18' E 008°29'0 0.0
2014-Oct-22 07:32N 44°18' E 008°29'1 0.4
2014-Oct-22 05:26N 44°19' E 008°30'1 0.1
2014-Oct-21 19:23N 44°18' E 008°29'0 0.0
2014-Oct-21 07:29N 44°18' E 008°29'0 0.0
2014-Oct-21 03:11N 44°18' E 008°29'1 0.1
2014-Oct-20 15:30N 44°19' E 008°30'1 0.7
2014-Oct-20 14:33N 44°18' E 008°29'0 0.0
2014-Oct-20 11:30N 44°18' E 008°29'0 0.0
2014-Oct-20 10:27N 44°18' E 008°29'0 0.2
2014-Oct-20 08:33N 44°18' E 008°30'2 1.8
2014-Oct-20 07:33N 44°17' E 008°28'2 1.6
2014-Oct-20 06:18N 44°18' E 008°29'0 0.0
2014-Oct-20 03:30N 44°18' E 008°29'0 0.0
2014-Oct-19 16:04N 44°18' E 008°29'0 0.0
2014-Oct-19 15:13N 44°18' E 008°29'0 0.0
2014-Oct-19 14:28N 44°18' E 008°29'0 0.0
2014-Oct-19 11:22N 44°18' E 008°29'0 0.0
2014-Oct-18 11:13N 44°18' E 008°29'0 0.0
2014-Oct-18 08:16N 44°18' E 008°29'0 0.0
2014-Oct-18 07:31N 44°18' E 008°29'1 0.3
2014-Oct-18 05:15N 44°19' E 008°30'0 0.4
2014-Oct-18 04:32N 44°19' E 008°30'1 0.8
2014-Oct-18 03:32N 44°18' E 008°29'0 0.0
2014-Oct-17 03:31N 44°18' E 008°29'0 0.0
2014-Oct-17 02:31N 44°18' E 008°29'0 0.0
2014-Oct-17 01:31N 44°18' E 008°29'0 0.0
2014-Oct-17 00:25N 44°18' E 008°29'0 0.0
2014-Oct-15 18:23N 44°19' E 008°29'0 0.1
2014-Oct-15 16:04N 44°18' E 008°29'0 0.0
2014-Oct-15 15:22N 44°18' E 008°29'0 0.0
2014-Oct-15 07:28N 44°18' E 008°29'3 1.0
2014-Oct-15 04:23N 44°16' E 008°27'0 0.4
2014-Oct-15 03:31N 44°16' E 008°27'3 3.1
2014-Oct-15 02:31N 44°19' E 008°29'0 0.3
2014-Oct-15 01:29N 44°18' E 008°29'0 0.0
2014-Oct-15 00:32N 44°18' E 008°29'0 0.0
2014-Oct-14 23:32N 44°18' E 008°29'0 0.0
2014-Oct-14 13:29N 44°18' E 008°29'0 0.0
2014-Oct-14 08:20N 44°18' E 008°29'0 0.0
2014-Oct-14 07:30N 44°18' E 008°29'3 2.9
2014-Oct-14 06:33N 44°16' E 008°27'  

Dump ship's entire track history